Timeline UpdatesTrip UpdatesNews PostsPvt PostsTravel TipsAdmin PostsConv PostsFollowed PostsChat RequestsBlog PostsPNR Posts

Disclaimer
Search
 
 
Tue Sep 2, 2014 02:30:45 ISTHomeTrainsΣChainsAtlasPNRForumGalleryNewsFAQTripsMembersLoginFeedback
No Recent News for this Train
Other Trains in the News **new
Latest...
.
Sat Mar 29, 2014 (04:33PM)
⇐ Return Journey: Train# 13151

13152/Jammu Tawi - Kolkata Express

NO Time-Table Change.
Yesterday (9:43PM)
Change Departure Station:
Change Arrival Station:
Post a Train Travel TipPost a Train Travel Tip **new
Post a Comment/Question/Picture/VideoPost a Comment/Question/Picture/Video
Pantry/Catering
✓ Pantry Car Avbl
✓ Catering Avbl
RSA - Rake Sharing
No Rake Sharing
Rake/Coach Composition
LOCO-SLR-GEN-GEN-MILITARY-B1-A1-PC-S11-S10-S9-S8-S7-S6-S5-S4-S3-S2-S1-GEN-SLR-HCPV
Loco
LDH WDM 3A (JAT - MGS);;; MGS WAP 4 (MGS...
Read more...
- KOAA)
News    PNR    Forum    Time-Table    Availability    Fare Chart    Map    Arr/Dep History    Trips    Gallery    ΣChains    X/O    Timeline    
Travel Time: 22h 10m    45 halts    Distance: 983 km    Avg Speed: 44 km/hr
Type: Mail/Express
Zone: ER/Eastern
Departs @ 18:55
Platform# 1
SMTWTFS
Jammu Tawi/JAT 
Arrives @ 17:05 +1 night
Platform# 3
SMTWTFS
Lucknow Charbagh/LKO 

45 halts. 162 intermediate Stations between Jammu Tawi and Lucknow Charbagh

Show ALL intermediate Stations  

#CodeStation NameX/OArrivesAvgDepartsAvgHaltPFDay#KmSpeedElevZoneAddress
1JAT»Jammu Tawi (3)»  -18:55-110.071337mNRJammu 180002, Jammu and Kashmir
2VJPJVijaypur Jammu (2)  19:13-19:15-2m2121.353353mNRdistt. samba, Jammu and Kashmir
3SMBXSamba (2)  19:28-19:30-2m1132.763365mNRDist. Samba, Jammu and Kashmir
4HRNRHira Nagar (2)  19:44-19:46-2m2147.571380mNRHiranagar, Jammu and Kashmir
5CKDLChakdayala (2)X  19:49-19:51-2m2151.023396mNRdistt. kathua, Jammu and Kashmir
6KTHUKathua (2)  20:57-20:59-2m2176.348396mNRdistt. kathua, Jammu and Kashmir
7SJNPSujanpur (3)O  21:18-21:20-2m2191.412335mNRSujanpur, Punjab
8PTKCPathankot Cantt (3)  22:00-22:05-5m1199.457328mNRPathankot By Pass Ph:0186-2251594, Punjab
9MEXMukerian (3)  22:47-22:49-2m11139.356257mNRMukerian distt. hosiharpur, Punjab
10DZADasuya (2)  23:05-23:07-2m11154.371251mNRDasuya distt. hoshiarpur, Punjab
11TDOTanda Urmar (3)X  23:20-23:22-2m21169.765239mNRUrmar Tanda, Punjab
12JRCJalandhar Cantt. Junction (3)XO  00:01-00:05-4m32211.943239mNRNear Rama Mandi, Punjab
13PGWPhagwara Junction (3)X  00:28-00:30-2m12228.229245mNRPhagwara, Punjab
14LDHLudhiana Junction (7)X  01:45-01:55-10m12263.947246mNRLudhiana 141001, Punjab
15KNNKhanna (3)X  02:50-02:52-2m22306.767269mNRNH 1, Punjab
16SIRSirhind Junction (3)X  03:08-03:10-2m22324.688271mNRSirhind, Punjab
17RPJRajpura Junction (3)X  03:27-03:29-2m22349.447272mNRNH-1, Punjab
18UBCAmbala City (3)XO  03:55-03:57-2m12369.920273mNRNH-1, Haryana
19UMBAmbala Cantt. Junction (7)XO  04:20-04:30-10m12377.579278mNRAmbala 133001, Haryana
20JUDWJagadhri Workshop (2)  05:05-05:07-2m12423.527280mNRRailway Workshop Road, Haryana
21JUDYamunanagar-Jagadhri (3)X  05:18-05:20-2m22428.536275mNRYamunanagar, Haryana
22SRESaharanpur Junction (6)X  06:10-06:20-10m32458.669276mNRSaharanpur, Uttar Pradesh
23RKRoorkee (3)  06:50-06:52-2m12493.446264mNRRoorkee - 247667, Uttarakhand
24LRJLaksar Junction (4)  07:15-07:20-5m22511.198238mNRLaksar, Uttarakhand
25RSIRaisi  07:27-07:29-2m--2522.644231mNRLaksar, Uttarakhand
26CNKChandok (2)  07:46-07:48-2m22535.292257mNRChandok, Uttar Pradesh
27MZMMuzzampur Narayan (3)  07:56-07:58-2m12547.433258mNRJunction Point - NBD/LRJ/BJO, Uttar Pradesh
28NBDNajibabad Junction (3)  08:18-08:23-5m12558.479269mNRNajibabad, Uttar Pradesh
29NGGNagina (3)  08:40-08:42-2m--2580.967247mNRNagina, Uttar Pradesh
30DPRDhampurX  08:57-08:59-2m--2597.763236mNRDhampur, Uttar Pradesh
31SEOSeoharaXO  09:12-09:14-2m--2611.471224mNRSeohara, Uttar Pradesh
32KNTKanthO  09:28-09:30-2m--2628.027221mNRKanth, Uttar Pradesh
33MBMoradabad Junction (7)X  10:35-10:45-10m12657.455201mNRMoradabad, Uttar Pradesh
34RMURampur Junction (3)  11:15-11:17-2m--2684.756190mNRRampur, Uttar Pradesh
35MILMilakX  11:42-11:44-2m--2707.877180mNRMilak, Uttar Pradesh
36CBJClutterbuckGanj12:09-12:10-1m--2739.894172mNRBareilly, Uttar Pradesh
37BEBareilly Junction (4)  12:15-12:20-5m--2747.746174mNRBareilly, Uttar Pradesh
38PMRPitambarpur  12:46-12:48-2m--2767.663171mNRPitambarpur, Uttar Pradesh
39TLHTilharX  13:19-13:21-2m--2800.045163mNRTilhar, Uttar Pradesh
40SPNShahjahanpur Junction (3)X  13:45-13:50-5m--2818.255156mNRShahjahanpur, Uttar Pradesh
41ROZARoza Junction (4)  13:58-14:00-2m--2825.578156mNRShahjahanpur, Uttar Pradesh
42AJIAnjhi Shahabad  14:18-14:20-2m--2848.969148mNRAnjhi Shahabad, Uttar Pradesh
43HRIHardoi (5)  14:48-14:50-2m32881.164146mNRHardoi, Uttar Pradesh
44BLMBalamu Junction (4)X  15:21-15:23-2m--2914.161139mNRBalamau, Uttar Pradesh
45SANSandila (3)X  15:43-15:45-2m--2934.444132mNRSandila, Uttar Pradesh
46MLDMalihabad  16:18-16:20-2m--2958.732130mNRMalihabad, Uttar Pradesh
47LKO•Lucknow Charbagh (9)•X  17:05-17:20-15m32982.939123mNR226004, Uttar Pradesh
48BBKBarabanki Junction (4)  18:04-18:06-2m--21011.545122mNRPin-225001, Uttar Pradesh
49SGJSafdarGanjXO  18:30-18:32-2m--21029.785116mNRFaizabad Rd, Uttar Pradesh
50DYDDaryabad  18:46-18:48-2m--21049.577116mNRFaizabad Rd, Uttar Pradesh
51RDLRudauli (2)  19:06-19:08-2m--21072.637112mNRRudauli, Uttar Pradesh
52SLWSohwalX  19:45-19:47-2m--21095.528107mNRFaizabad Rd, Uttar Pradesh
53FDFaizabad Junction (5)X  20:20-20:25-5m--21110.814104mNRFaizabad, Uttar Pradesh
54ACNDAcharya Narendra Dev NagarX  20:34-20:36-2m--21112.918104mNRFaizabad, Uttar Pradesh
55AYAyodhya Junction (3)  20:51-20:53-2m221117.47098mNRAyodhya, Uttar Pradesh
56GGJGoshainGanj (3)X  21:20-21:22-2m--21149.24998mNRGoshainganj, Uttar Pradesh
57ABPAkbarpur (2)  21:49-21:51-2m121171.47692mNRAkbarpur, Uttar Pradesh
58MLPRMalipur (2)  22:06-22:08-2m--21190.56292mNRMalipur, Uttar Pradesh
59SHGShahganj Junction (4)  22:32-22:36-4m--21215.56490mNRShahganj, Uttar Pradesh
60JNUJaunpur Junction (5)  23:07-23:09-2m--21248.82683mNRJaunpur, Uttar Pradesh
61BSBVaranasi Junction (9)X  01:20-01:30-10m--31306.41582mNRVaranasi 221002, Uttar Pradesh
62KEIKashi (3)  01:51-01:53-2m--31311.81485mNRVaranasi, Uttar Pradesh
63MGSMughal Sarai Junction (8)XO  02:40-03:00-20m131322.75883mECRMughalsarai 232101, Uttar Pradesh
64CDMRChandauli MajhwarX  03:18-03:20-2m--31340.27280mECRNational Highway 2, Uttar Pradesh
65SYJSaidraja  03:27-03:29-2m--31348.58280mECRSaiyedraja, Uttar Pradesh
66BBUBhabua Road (4)  03:50-03:52-2m--31377.37980mECR06187-222222, Bihar
67KTQKudra (2)  04:09-04:11-2m--31399.67692mECRKudra, Bihar
68SSMSasaram Junction (4)X  04:31-04:33-2m231424.959111mECR06184-222051, Bihar
69DOSDehri On Sone (6)  04:51-04:53-2m--31442.557114mECRRohtas(06184-253154), Bihar
70SEBSon Nagar Junction (4)X  04:59-05:01-2m--31448.365110mECRBarun, Bihar
71AUBRAnugraha Narayan Road (4)X  05:11-05:13-2m231459.175104mECR06186-285271, Bihar
72JHNJakhim  05:29-05:31-2m--31479.25493mECRbel Rd, Bihar
73RFJRafiGanj (4)X  05:43-05:45-2m--31490.081102mECRRafiganj, Bihar
74GRRUGuraruX  05:57-05:59-2m--31506.127114mECRGuraru, Bihar
75GAYAGaya Junction (9)O  06:46-06:51-5m231527.663117mECR0631-2220283, Bihar
76TKNTankuppa  07:10-07:12-2m--31547.767127mECRState Highway 70, Bihar
77PRPPaharpur  07:23-07:25-2m--31559.987150mECRGaya, Bihar
78GAPGurpa  07:33-07:35-2m--31571.658192mECRLodhwe, Bihar
79GJDGujhandi  07:58-08:00-2m--31594.060386mECRNational Highway 31, Jharkhand
80KQRKoderma Junction (7)X  08:10-08:12-2m--31604.075399mECR06534-222410 Koderma, Jharkhand
81PSBParsabad (3)  08:33-08:35-2m--31630.377346mECRNational Highway 2, Jharkhand
82HZDHazaribagh Road (3)  08:52-08:54-2m--31652.381330mECRHazaribagh, Jharkhand
83PNMEParasnath (5)X  09:14-09:16-2m--31679.354282mECRGiridih 06532-233419, Jharkhand
84GMONetaji SC Bose Gomoh Junction (6)  09:36-09:46-10m--31697.446239mECRGomoh, Jharkhand
85DHNDhanbad Junction (8)X  10:25-10:32-7m231727.285235mECR2319801. Div. HQ ECR, Jharkhand
86KMMEKumardubi (2)  10:59-11:01-2m--31765.750135mERDhanbad - 828203(06540-222077), Jharkhand
87BRRBarakar (2)X  11:04-11:06-2m--31768.239129mERDist. Bardhaman, West Bengal
88ULTKulti (3)  11:11-11:13-2m--31771.440148mERdist - bardhaman, West Bengal
89ASNAsansol Junction (7)  11:34-11:49-15m--31785.472113mERDist - bardhaman, West Bengal
90RNGRaniGanj (4)  12:04-12:06-2m--31803.54092mERRaniganj, West Bengal
91UDLAndal Junction (6)O  12:17-12:19-2m--31810.84386mERAndal, West Bengal
92DGRDurgapur (5)  12:43-12:45-2m431827.89471mERDurgapur, West Bengal
93PANPanagarh (4)X  12:55-12:57-2m--31843.47070mERKaksa, West Bengal
94BWNBarddhaman Junction (8)X  13:38-13:43-5m--31891.47334mERDist - Barddhaman, West Bengal
95KQUKamarkundu (5)  14:34-14:36-2m--31953.05813mERDist - Hooghly, West Bengal
96DAKEDakhineswar (2)  15:04-15:06-2m231980.01410mERDist - 24 paraganas ( North ), West Bengal
97KOAAKolkata Chitpur (5)  15:50--331990.0-6mERKolkata, West Bengal
Scroll to Top
Scroll to Bottom